Terminal Aerodrome Forecast
Issued by NWS

Home | Current Version | Previous Version | Text Only | Print | Product List | Glossary On
Versions: 1 2 3 4 5 6 7 8 9 10 11 12 13 14
000
FTUS43 KMQT 280500
TAFIWD
TAF
KIWD 280524Z 2806/2906 36003KT P6SM SCT050
      TEMPO 2806/2810 1SM BR
     FM281400 32007KT P6SM SCT050
     FM281900 30009KT P6SM BKN050
      AMD LTD TO CLD VIS AND WIND=

USA.gov is the U.S. government's official web portal to all federal, state and local government web resources and services.